Weather observations for the past three days for
Martinsville
Metric (Imperial)
Date Time (edt) Wind (kph) Vis. (km) Weather Sky Cond. Temperature (ºC) Relative Humidity Wind Chill (°C) Heat Index (°C) Pressure Precipitation (cm)
Air Dwpt 6 hour altimeter (cm) sea level (mb) 1 hr 3 hr 6 hr
Max. Min.
06 05:35 SW 13 16.09 Fair CLR 16.7 8.7 59% 76 0.0
06 05:15 SW 11 16.09 Fair CLR 16.8 8.6 59% 76.02 0.0
06 04:55 SW 11 16.09 Fair CLR 16.7 8.5 59% 76.02 0.0
06 04:35 S 9 16.09 Fair CLR 16.8 8.4 58% 76.02 0.0
06 04:15 S 9 16.09 Fair CLR 16.9 8.1 56% 76.02 0.0
06 03:55 SW 11 16.09 Fair CLR 16.8 7.9 56% 76.07 0.0
06 03:35 S 7 16.09 Fair CLR 16.7 7.6 55% 76.02 0.0
06 03:15 SW 6 16.09 Fair CLR 16.7 7.4 54% 76.02 0.0
06 02:55 SW 9 16.09 Fair CLR 16.8 7.2 53% 76.07 0.0
06 02:15 SW 7 16.09 Partly Cloudy SCT100 17.5 6.6 49% 76.05 0.0
06 01:55 S 9 16.09 Partly Cloudy SCT100 17.8 6.3 22.6 17 47% 76.07 0.0
06 01:35 S 13 16.09 Fair CLR 18 5.9 45% 76.07 0.0
06 01:15 S 11 16.09 Fair CLR 17.6 5.4 45% 76.07 0.0
06 00:55 S 11 16.09 Fair CLR 17.8 5 43% 76.07 0.0
06 00:35 S 7 16.09 Fair CLR 17.1 5 45% 76.07 0.0
06 00:15 Calm 16.09 Fair CLR 17.3 4.7 44% 76.07 0.0
05 23:55 S 7 16.09 Fair CLR 17.7 4.5 42% 76.07 0.0
05 23:35 S 6 16.09 Fair CLR 17.6 4.2 41% 76.07 0.0
05 23:15 S 6 16.09 Fair CLR 18 4 40% 76.07 0.0
05 22:55 S 7 16.09 Fair CLR 18 4 40% 76.1 0.0
05 22:35 S 7 16.09 Fair CLR 18.3 4 39% 76.1 0.0
05 22:15 S 7 16.09 Fair CLR 17.9 4.1 40% 76.1 0.0
05 21:55 S 7 16.09 Fair CLR 18.8 3.6 37% 76.1 0.0
05 21:35 S 7 16.09 Fair CLR 19 3.5 36% 76.1 0.0
05 21:15 S 6 16.09 Fair CLR 19.8 3.1 33% 76.07 0.0
05 20:55 S 6 16.09 Fair CLR 20.7 2.7 31% 76.07 0.0
05 20:35 SW 7 16.09 Fair CLR 21 2.7 30% 76.07 0.0
05 20:15 Calm 16.09 Fair CLR 21.7 2.3 28% 76.05 0.0
05 19:55 SW 7 16.09 Fair CLR 22.7 2 26.2 22.7 26% 76.02 0.0
05 19:35 SW 11 16.09 Fair CLR 23.4 1.7 24% 76.02 0.0
05 19:15 SW 9 16.09 Fair CLR 23.4 1.6 24% 76.02 0.0
05 18:55 SW 17 16.09 Fair CLR 23.8 0.6 22% 76.02 0.0
05 18:35 SW 13 G 33 16.09 Fair CLR 24.9 0.1 20% 25 76.02 0.0
05 18:15 SW 19 G 31 16.09 Fair CLR 25.6 -0.1 18% 25 76.02 0.0
05 17:55 SW 20 G 28 16.09 Fair CLR 24.3 -0.3 20% 25 76.05 0.0
05 17:35 SW 13 G 39 16.09 Fair CLR 24.9 -1.3 18% 25 76.05 0.0
05 17:15 SW 17 G 35 16.09 Fair CLR 26 -0.4 18% 25 76.02 0.0
05 16:55 SW 22 G 39 16.09 Fair CLR 26 -0.3 18% 25 76.05 0.0
05 16:35 SW 30 G 37 16.09 Fair CLR 25.8 -0.8 17% 25 76.05 0.0
05 16:15 SW 20 G 30 16.09 Fair CLR 25.7 0 19% 25 76.07 0.0
05 15:55 S 19 G 31 16.09 Fair CLR 25.1 -0.2 19% 25 76.1 0.0
05 15:35 SW 24 G 37 16.09 Fair CLR 25.6 -1.6 17% 25 76.12 0.0
05 15:15 SW 13 G 28 16.09 Fair CLR 26 0.1 18% 25 76.12 0.0
05 14:55 S 19 G 37 16.09 Fair CLR 25.4 0.3 19% 25 76.15 0.0
05 14:35 SW 19 G 37 16.09 Fair CLR 25.5 0.5 19% 25 76.17 0.0
05 14:15 SW 13 G 30 16.09 Fair CLR 24.9 1.4 21% 25 76.17 0.0
05 13:55 SW 17 G 30 16.09 Fair CLR 24.8 1.4 25.3 9 22% 25 76.2 0.0
05 13:35 S 15 G 30 16.09 Fair CLR 24.2 1.3 22% 25 76.2 0.0
05 13:15 SW 17 16.09 Fair CLR 25.1 0.8 20% 25 76.2 0.0
05 12:55 SW 11 16.09 Fair CLR 24.2 1.6 23% 25 76.23 0.0
05 12:35 S 17 16.09 Fair CLR 23.6 2.8 26% 76.25 0.0
05 12:15 W 11 16.09 Fair CLR 23.3 3.5 28% 76.28 0.0
05 11:55 SW 13 16.09 Fair CLR 22.6 3.9 30% 76.3 0.0
05 11:35 SW 11 16.09 Fair CLR 22 3.8 30% 76.3 0.0
05 11:15 SW 11 16.09 Fair CLR 21.6 4.3 32% 76.3 0.0
05 10:55 SW 9 16.09 Fair CLR 20.9 4.5 34% 76.3 0.0
05 10:35 SW 6 16.09 Fair CLR 20 3.8 34% 76.3 0.0
05 10:15 SW 13 16.09 Fair CLR 19.1 4.3 38% 76.3 0.0
05 09:55 SW 11 16.09 Fair CLR 18.1 4.6 41% 76.3 0.0
05 09:35 S 13 16.09 Fair CLR 17.1 4.6 44% 76.28 0.0
05 09:15 S 13 16.09 Fair CLR 16 4.3 46% 76.28 0.0
05 08:55 SW 7 16.09 Fair CLR 15.4 4.5 48% 76.28 0.0
05 08:35 S 9 16.09 Fair CLR 14.1 4.3 52% 76.28 0.0
05 08:15 S 6 16.09 Fair CLR 12.3 4.7 60% 76.28 0.0
05 07:55 Calm 16.09 Fair CLR 8.8 4.5 11.6 4.5 75% 76.28 0.0
05 07:35 Calm 16.09 Fair CLR 7.1 4.3 83% 76.28 0.0
05 07:15 Calm 16.09 Fair CLR 5.8 3.2 84% 76.25 0.0
05 06:55 Calm 16.09 Fair CLR 4.7 2.2 84% 76.25 0.0
05 06:35 Calm 16.09 Fair CLR 5 2.6 85% 76.23 0.0
05 06:15 Calm 16.09 Fair CLR 5.2 2.7 84% 76.23 0.0
05 05:55 Calm 16.09 Fair CLR 5.5 2.5 81% 76.23 0.0
05 05:35 Calm 16.09 Fair CLR 5.6 2.9 83% 76.23 0.0
05 05:15 Calm 16.09 Fair CLR 5.9 2.9 81% 76.23 0.0
05 04:55 NW 6 16.09 Fair CLR 5.4 2.4 81% 76.2 0.0
05 04:35 Calm 16.09 Fair CLR 6 2.4 78% 76.17 0.0
05 04:15 Calm 16.09 Fair CLR 7 3.6 79% 76.17 0.0
05 03:55 Calm 16.09 Fair CLR 6.5 3.3 80% 76.15 0.0
05 03:35 NW 6 16.09 Fair CLR 6.6 3 78% 76.15 0.0
05 03:15 Calm 16.09 Fair CLR 7.5 3.4 76% 76.12 0.0
05 02:55 NW 6 16.09 Fair CLR 8.5 3.5 71% 76.12 0.0
05 02:35 Calm 16.09 Fair CLR 8.2 3.2 71% 76.12 0.0
05 02:15 Calm 16.09 Fair CLR 9 3.2 67% 76.12 0.0
05 01:55 Calm 16.09 Fair CLR 11.3 3.1 22 10 57% 76.12 0.0
05 01:35 S 6 16.09 Fair CLR 11.3 3.3 58% 76.12 0.0
05 01:15 Calm 16.09 Fair CLR 10.9 3 58% 76.12 0.0
05 00:55 Calm 16.09 Fair CLR 11.5 2.7 55% 76.12 0.0
05 00:35 SW 6 16.09 Fair CLR 13 2.3 48% 76.1 0.0
05 00:15 SW 6 16.09 Fair CLR 13.2 2.7 49% 76.1 0.0
04 23:55 Calm 16.09 Fair CLR 13.5 3 49% 76.12 0.0
04 23:35 SW 6 16.09 Fair CLR 12.7 4.1 56% 76.12 0.0
04 23:15 SW 6 16.09 Fair CLR 13.4 3.9 53% 76.15 0.0
04 22:55 SW 7 16.09 Fair CLR 14.8 3 45% 76.15 0.0
04 22:35 SW 6 16.09 Fair CLR 15.8 2.6 41% 76.12 0.0
04 22:15 SW 7 16.09 Fair CLR 17.1 2 36% 76.12 0.0
04 21:55 SW 6 16.09 Fair CLR 17 2.6 38% 76.12 0.0
04 21:35 S 6 16.09 Fair CLR 17.9 2.2 35% 76.12 0.0
04 21:15 SW 6 16.09 Fair CLR 18.4 2.5 35% 76.1 0.0
04 20:55 SW 7 16.09 Fair CLR 19.9 1.6 30% 76.07 0.0
04 20:35 SW 7 16.09 Fair CLR 20.3 1.6 29% 76.07 0.0
04 20:15 SW 7 16.09 Fair CLR 21.3 1.2 26% 76.07 0.0
04 19:55 SW 6 16.09 Fair CLR 22.1 1 25.6 22.1 25% 76.05 0.0
04 19:35 SW 9 16.09 Fair CLR 23 0.5 23% 76.02 0.0
04 19:15 SW 15 16.09 Fair CLR 23.6 1 23% 76.02 0.0
04 18:55 S 13 16.09 Fair CLR 24 0.7 22% 25 76.02 0.0
04 18:35 S 11 G 26 16.09 Partly Cloudy SCT080 24.4 0.6 21% 25 76.02 0.0
04 18:15 S 13 16.09 Fair CLR 25 1 21% 25 76.02 0.0
04 17:55 W 11 16.09 Fair CLR 25.1 0.7 20% 25 76.02 0.0
04 17:35 SW 11 16.09 Fair CLR 25.1 1.1 21% 25 76.02 0.0
04 17:15 S 15 16.09 Partly Cloudy SCT070 SCT080 25.3 1.3 21% 25 76.02 0.0
04 16:55 W 17 16.09 Partly Cloudy SCT070 25.6 1.8 21% 25 76.02 0.0
04 16:35 SW 17 G 26 16.09 Fair CLR 24.6 1.9 23% 25 76.02 0.0
04 16:15 W 15 16.09 Fair CLR 24.6 1.6 22% 25 76.05 0.0
04 15:55 W 13 G 26 16.09 Fair CLR 24.5 1.6 22% 25 76.07 0.0
04 15:35 W 11 16.09 Fair CLR 24.6 1.4 22% 25 76.1 0.0
04 15:15 SW 19 16.09 Fair CLR 24.3 1.4 22% 25 76.12 0.0
04 14:55 SW 13 G 28 16.09 Fair CLR 23.4 1.2 23% 76.12 0.0
04 14:35 SW 15 G 31 16.09 Fair CLR 23 0.7 23% 76.15 0.0
04 14:15 W 11 16.09 Fair CLR 23.1 1.3 24% 76.17 0.0
04 13:55 SW 17 16.09 Fair CLR 22.7 0.8 22.7 3.9 24% 76.2 0.0
04 13:35 SW 20 G 28 16.09 Fair CLR 22.7 0.2 23% 76.17 0.0
04 13:15 W 15 G 26 16.09 Fair CLR 22.4 0.6 24% 76.2 0.0
04 12:55 S 17 16.09 Fair CLR 21.4 -0.1 24% 76.23 0.0
04 12:35 S 6 16.09 Fair CLR 20.5 -0.2 25% 76.23 0.0
04 11:55 S 9 16.09 Fair CLR 19.5 -0.3 27% 76.3 0.0
04 11:35 SW 11 16.09 Fair CLR 19.3 -0.2 27% 76.33 0.0
04 11:15 W 9 16.09 Fair CLR 18.7 -1.5 26% 76.33 0.0
04 10:55 SW 11 16.09 Fair CLR 18.8 -1.5 25% 76.33 0.0
04 10:35 SW 15 G 26 16.09 Fair CLR 18.2 -1.9 26% 76.33 0.0
04 10:15 SW 7 16.09 Fair CLR 17 -0.1 32% 76.33 0.0
04 09:55 W 7 16.09 Partly Cloudy SCT110 16.2 0.1 34% 76.33 0.0
04 09:35 W 6 16.09 Mostly Cloudy BKN120 15 0.1 36% 76.33 0.0
04 09:15 SW 6 16.09 Overcast OVC120 13.3 0 40% 76.33 0.0
04 08:55 Calm 16.09 Partly Cloudy SCT120 10.7 0.9 51% 76.33 0.0
04 08:35 Calm 16.09 Fair CLR 8.3 1.3 62% 76.33 0.0
04 08:15 Calm 16.09 Partly Cloudy SCT120 5.6 1.5 75% 76.33 0.0
04 07:55 Calm 16.09 Partly Cloudy SCT120 3.7 0.9 3.7 0 82% 76.35 0.0
04 07:35 Calm 16.09 Fair CLR 2.7 0.3 84% 76.33 0.0
04 07:15 Calm 16.09 Fair CLR 2.2 0 86% 76.35 0.0
04 06:55 Calm 16.09 Partly Cloudy SCT120 1.7 -0.2 87% 76.33 0.0
04 06:35 Calm 16.09 Partly Cloudy SCT120 0.9 -1 87% 76.35 0.0
04 06:15 Calm 16.09 Fair CLR 0.6 -1.1 89% 76.33 0.0
04 05:55 Calm 16.09 Fair CLR 0.8 -1 88% 76.33 0.0
04 05:35 Calm 16.09 Fair CLR 0.5 -1.4 87% 76.35 0.0
04 05:15 Calm 16.09 Fair CLR 0.1 -1.8 87% 76.33 0.0
04 04:55 Calm 16.09 Fair CLR 0.8 -1 88% 76.33 0.0
04 04:35 Calm 16.09 Fair CLR 0.9 -1 87% 76.33 0.0
04 04:15 Calm 16.09 Fair CLR 0.9 -1.1 87% 76.35 0.0
04 03:55 Calm 16.09 Fair CLR 1 -1 87% 76.33 0.0
04 03:35 Calm 16.09 Fair CLR 1 -1.1 86% 76.33 0.0
04 03:15 Calm 16.09 Fair CLR 1.5 -0.6 86% 76.33 0.0
04 02:55 Calm 16.09 Fair CLR 1.7 -0.5 86% 76.33 0.0
04 02:35 Calm 16.09 Fair CLR 2 -0.3 85% 76.33 0.0
04 02:15 Calm 16.09 Fair CLR 2.5 0 84% 76.33 0.0
04 01:55 NW 6 16.09 Fair CLR 2.1 -0.6 15.4 2.1 83% 76.33 0.0
04 01:35 Calm 16.09 Partly Cloudy SCT120 3.4 0.1 79% 76.33 0.0
04 01:15 Calm 16.09 Fair CLR 3 0 81% 76.35 0.0
04 00:55 Calm 16.09 Partly Cloudy SCT120 3.6 0 78% 76.35 0.0
04 00:35 Calm 16.09 Fair CLR 3.4 -0.3 77% 76.35 0.0
04 00:15 Calm 16.09 Fair CLR 3.3 -0.3 78% 76.35 0.0
03 23:55 Calm 16.09 Fair CLR 3.8 -0.1 76% 76.35 0.0
03 23:35 Calm 16.09 Fair CLR 4.6 -0.2 71% 76.33 0.0
03 23:15 Calm 16.09 Fair CLR 4.8 -0.4 69% 76.35 0.0
03 22:55 Calm 16.09 Fair CLR 5.7 0 67% 76.35 0.0
03 22:35 Calm 16.09 Fair CLR 6 -0.6 63% 76.33 0.0
03 22:15 Calm 16.09 Fair CLR 6 -0.8 62% 76.33 0.0
03 21:55 Calm 16.09 Fair CLR 7.1 -1.5 55% 76.3 0.0
03 21:35 Calm 16.09 Fair CLR 7.3 -1.5 54% 76.28 0.0
03 21:15 Calm 16.09 Fair CLR 9.1 -1.7 47% 76.25 0.0
03 20:55 Calm 16.09 Fair CLR 10.4 -2.6 40% 76.25 0.0
03 20:35 Calm 16.09 Fair CLR 11.2 -2.1 40% 76.25 0.0
03 20:15 Calm 16.09 Fair CLR 13 -3.7 31% 76.23 0.0
03 19:55 Calm 16.09 Fair CLR 15.6 -6.9 19.2 15.4 21% 76.23 0.0
03 19:35 S 6 16.09 Fair CLR 17 -9.2 16% 76.2 0.0
03 19:15 SW 7 16.09 Fair CLR 18 -11.4 12% 76.2 0.0
03 18:55 SW 7 16.09 Fair CLR 18.5 -14.3 9% 76.2 0.0
03 18:35 W 7 16.09 Fair CLR 18.7 -13.8 10% 76.23 0.0
03 18:15 SW 13 16.09 Fair CLR 18.7 -15.5 8% 76.23 0.0
03 17:55 W 11 16.09 Fair CLR 19 -16.8 7% 76.25 0.0
03 17:35 W 11 G 26 16.09 Fair CLR 19 -14.9 9% 76.25 0.0
03 17:15 SW 7 16.09 Fair CLR 19 -17.3 7% 76.25 0.0
03 16:55 SW 13 16.09 Fair CLR 18.9 -15.2 9% 76.25 0.0
03 16:35 SW 19 16.09 Fair CLR 18.7 -14.4 9% 76.28 0.0
03 16:15 S 7 16.09 Fair CLR 18.2 -14.9 9% 76.3 0.0
03 15:55 SW 15 16.09 Fair CLR 18 -14.1 10% 76.33 0.0
03 15:35 N 13 16.09 Fair CLR 17.8 -12.6 11% 76.33 0.0
03 15:15 E 6 16.09 Fair CLR 17.4 -12.9 11% 76.35 0.0
03 14:55 N 11 16.09 Fair CLR 17.1 -12.5 12% 76.4 0.0
03 14:35 W 6 16.09 Fair CLR 16.9 -12.9 12% 76.4 0.0
03 14:15 W 6 16.09 Fair CLR 16.2 -12.3 13% 76.43 0.0
03 13:55 W 7 16.09 Fair CLR 16 -12.5 16.3 2.4 13% 76.45 0.0
03 13:35 W 9 16.09 Fair CLR 15 -14.1 12% 76.45 0.0
03 13:15 NW 11 16.09 Fair CLR 14.3 -10.9 16% 76.48 0.0
03 12:55 NW 13 G 33 16.09 Fair CLR 14.6 -10.7 16% 76.5 0.0
03 12:35 N 13 16.09 Fair CLR 14 -9.6 19% 76.53 0.0
03 12:15 NW 17 16.09 Fair CLR 13.6 -9.1 20% 76.56 0.0
03 11:55 W 13 16.09 Fair CLR 12.7 -9.2 21% 76.56 0.0
03 11:35 NW 7 16.09 Fair CLR 12.1 -9.1 22% 76.58 0.0
03 11:15 N 15 16.09 Fair CLR 11.9 -8.3 24% 76.58 0.0
03 10:55 N 15 G 26 16.09 Fair CLR 11.4 -8.2 25% 76.58 0.0
03 10:35 N 19 G 28 16.09 Fair CLR 10.9 -7.3 27% 76.58 0.0
03 10:15 NW 15 16.09 Fair CLR 10.5 -7.1 29% 76.58 0.0
03 09:55 NW 20 G 28 16.09 Fair CLR 10 -7.2 29% 8 76.58 0.0
03 09:35 NW 19 G 26 16.09 Fair CLR 9.5 -6.4 32% 7 76.58 0.0
03 09:15 N 20 G 31 16.09 Fair CLR 8.7 -5.3 37% 6 76.58 0.0
03 08:55 NW 7 16.09 Fair CLR 7.8 -3.8 44% 7 76.58 0.0
03 08:35 Calm 16.09 Fair CLR 6.9 -2.3 52% 76.58 0.0
03 08:15 Calm 16.09 Fair CLR 4.7 -0.1 71% 76.56 0.0
03 07:55 Calm 16.09 Fair CLR 2.1 -0.9 2.1 -1.7 81% 76.53 0.0
03 07:35 Calm 16.09 Fair CLR 0 -2.2 85% 76.53 0.0
03 07:15 Calm 16.09 Fair CLR -0.5 -2.6 86% 76.53 0.0
03 06:55 Calm 16.09 Fair CLR -1.5 -3.6 86% 76.48 0.0
03 06:35 Calm 16.09 Fair CLR -1.6 -3.8 85% 76.45 0.0
03 06:15 Calm 16.09 Fair CLR -1.1 -3.3 85% 76.4 0.0
03 05:55 NW 6 16.09 Fair CLR -1.6 -3.8 85% 76.4 0.0
Date Time (edt) Wind (kph) Vis. (km) Weather Sky Cond. Air Dwpt Max. Min. Relative Humidity Wind Chill (°C) Heat Index (°C) altimeter (cm) sea level (mb) 1 hr 3 hr 6 hr
6 hour
Temperature (ºC) Pressure Precipitation (cm)